Time;durP1;ratioP1;P1;durP2;ratioP2;P2;SDS_P1;SDS_P2;PMS_P1;PMS_P2;Temp;Humidity;BMP_temperature;BMP_pressure;BME280_temperature;BME280_humidity;BME280_pressure;Samples;Min_cycle;Max_cycle;Signal;HPM_P1;HPM_P2
2024/01/22 00:00:10;;;;;;;51.28;48.50;;;;;;;;;;4232135;28;20059;-59
2024/01/22 00:02:12;;;;;;;52.75;49.72;;;;;;;;;;4232303;28;20031;-60
2024/01/22 00:04:13;;;;;;;57.58;53.90;;;;;;;;;;4232031;28;20064;-61
2024/01/22 00:06:15;;;;;;;57.85;54.67;;;;;;;;;;4232616;28;20069;-61
2024/01/22 00:08:17;;;;;;;57.60;53.85;;;;;;;;;;4232257;28;20487;-60
2024/01/22 00:10:19;;;;;;;52.03;49.00;;;;;;;;;;4232467;28;20384;-61
2024/01/22 00:12:20;;;;;;;55.33;51.60;;;;;;;;;;4232534;28;20533;-61
2024/01/22 00:14:22;;;;;;;57.63;53.85;;;;;;;;;;4232496;28;20036;-61
2024/01/22 00:16:24;;;;;;;62.58;57.60;;;;;;;;;;4232218;28;20036;-61
2024/01/22 00:18:25;;;;;;;63.30;58.83;;;;;;;;;;4232320;28;20085;-61
2024/01/22 00:20:27;;;;;;;57.97;53.70;;;;;;;;;;4232049;28;20040;-60
2024/01/22 00:22:29;;;;;;;55.55;51.97;;;;;;;;;;4231968;27;20051;-60
2024/01/22 00:24:31;;;;;;;62.03;57.90;;;;;;;;;;4231659;28;20468;-61
2024/01/22 00:26:32;;;;;;;66.65;61.28;;;;;;;;;;4226559;28;20687;-59
2024/01/22 00:28:34;;;;;;;65.72;60.67;;;;;;;;;;4215306;28;20040;-60
2024/01/22 00:30:36;;;;;;;60.78;56.53;;;;;;;;;;4229753;28;20425;-61
2024/01/22 00:32:38;;;;;;;58.35;54.47;;;;;;;;;;4232301;28;20088;-60
2024/01/22 00:34:40;;;;;;;59.17;54.88;;;;;;;;;;4232081;28;20067;-61
2024/01/22 00:36:42;;;;;;;56.25;52.50;;;;;;;;;;4230528;28;20097;-60
2024/01/22 00:38:43;;;;;;;52.70;49.73;;;;;;;;;;4232176;28;20510;-61
2024/01/22 00:40:45;;;;;;;51.13;48.27;;;;;;;;;;4231949;28;20445;-61
2024/01/22 00:42:47;;;;;;;53.97;50.63;;;;;;;;;;4231965;28;20048;-60
2024/01/22 00:44:48;;;;;;;55.28;51.97;;;;;;;;;;4231686;28;20499;-60
2024/01/22 00:46:50;;;;;;;57.80;54.08;;;;;;;;;;4231952;28;20503;-60
2024/01/22 00:48:52;;;;;;;57.13;53.58;;;;;;;;;;4217392;28;20036;-60
2024/01/22 00:50:54;;;;;;;58.70;55.30;;;;;;;;;;4214930;28;20036;-61
2024/01/22 00:52:55;;;;;;;56.08;52.80;;;;;;;;;;4215038;28;20048;-60
2024/01/22 00:54:57;;;;;;;56.42;52.97;;;;;;;;;;4230443;28;20067;-60
2024/01/22 00:56:58;;;;;;;54.60;51.35;;;;;;;;;;4230388;28;20077;-61
2024/01/22 00:59:00;;;;;;;54.53;51.60;;;;;;;;;;4231731;28;20084;-61
2024/01/22 01:01:02;;;;;;;58.08;54.47;;;;;;;;;;4231440;28;20051;-60
2024/01/22 01:03:04;;;;;;;58.53;54.72;;;;;;;;;;4231165;28;20538;-60
2024/01/22 01:05:06;;;;;;;53.08;50.03;;;;;;;;;;4231236;28;20513;-61
2024/01/22 01:07:07;;;;;;;55.03;51.72;;;;;;;;;;4231642;28;20054;-60
2024/01/22 01:09:09;;;;;;;54.45;51.15;;;;;;;;;;4231480;28;20093;-60
2024/01/22 01:11:11;;;;;;;58.03;54.72;;;;;;;;;;4231446;28;20392;-59
2024/01/22 01:13:12;;;;;;;57.50;54.03;;;;;;;;;;4231544;28;20040;-60
2024/01/22 01:15:14;;;;;;;53.60;50.38;;;;;;;;;;4223193;28;20036;-60
2024/01/22 01:17:15;;;;;;;54.60;51.43;;;;;;;;;;4212998;28;20047;-61
2024/01/22 01:19:17;;;;;;;54.22;51.33;;;;;;;;;;4229851;28;20293;-61
2024/01/22 01:21:22;;;;;;;48.13;45.78;;;;;;;;;;4231124;28;20059;-61
2024/01/22 01:23:24;;;;;;;54.20;51.03;;;;;;;;;;4231476;28;20415;-61
2024/01/22 01:25:26;;;;;;;53.95;50.13;;;;;;;;;;4231054;28;20046;-59
2024/01/22 01:27:28;;;;;;;57.78;54.28;;;;;;;;;;4231310;28;20065;-61
2024/01/22 01:29:30;;;;;;;56.92;53.38;;;;;;;;;;4231262;28;20089;-60
2024/01/22 01:31:31;;;;;;;59.08;55.50;;;;;;;;;;4230837;28;20100;-60
2024/01/22 01:33:34;;;;;;;59.92;56.05;;;;;;;;;;4231271;28;20096;-60
2024/01/22 01:35:36;;;;;;;59.00;55.33;;;;;;;;;;4231139;28;20042;-60
2024/01/22 01:37:37;;;;;;;57.55;54.03;;;;;;;;;;4230916;28;20039;-60
2024/01/22 01:39:39;;;;;;;53.38;50.33;;;;;;;;;;4231136;28;20051;-60
2024/01/22 01:41:40;;;;;;;55.85;52.88;;;;;;;;;;4230836;28;20073;-61
2024/01/22 01:43:42;;;;;;;54.83;52.07;;;;;;;;;;4228661;28;20035;-61
2024/01/22 01:45:44;;;;;;;51.08;48.30;;;;;;;;;;4213906;28;20086;-60
2024/01/22 01:47:47;;;;;;;50.57;48.27;;;;;;;;;;4212861;28;20116;-60
2024/01/22 01:49:50;;;;;;;52.20;49.80;;;;;;;;;;4214087;28;20079;-60
2024/01/22 01:51:51;;;;;;;49.00;46.60;;;;;;;;;;4213828;28;20055;-61
2024/01/22 01:53:54;;;;;;;48.45;46.47;;;;;;;;;;4220156;28;20088;-60
2024/01/22 01:55:57;;;;;;;46.08;44.00;;;;;;;;;;4229799;28;20043;-58
2024/01/22 01:57:59;;;;;;;49.35;47.03;;;;;;;;;;4228244;28;20051;-60
2024/01/22 02:00:09;;;;;;;50.80;48.45;;;;;;;;;;4212683;28;20036;-59
2024/01/22 02:02:13;;;;;;;54.45;51.42;;;;;;;;;;4217003;28;20625;-57
2024/01/22 02:04:14;;;;;;;;;;;;;;;;;;4228522;28;20040;-56
2024/01/22 02:06:16;;;;;;;50.03;47.25;;;;;;;;;;4228912;28;20368;-57
2024/01/22 02:08:18;;;;;;;54.15;50.75;;;;;;;;;;4227619;28;20039;-56
2024/01/22 02:10:19;;;;;;;53.35;50.05;;;;;;;;;;4229503;28;20043;-57
2024/01/22 02:12:21;;;;;;;54.55;51.45;;;;;;;;;;4215256;28;20089;-57
2024/01/22 02:14:23;;;;;;;55.80;52.37;;;;;;;;;;4219181;28;20102;-56
2024/01/22 02:16:25;;;;;;;55.28;52.42;;;;;;;;;;4230394;28;20043;-57
2024/01/22 02:18:27;;;;;;;;;;;;;;;;;;4230285;28;20035;-57
2024/01/22 02:20:29;;;;;;;52.30;49.53;;;;;;;;;;4230189;28;19973;-56
2024/01/22 02:22:31;;;;;;;52.80;50.05;;;;;;;;;;4230550;28;20039;-56
2024/01/22 02:24:32;;;;;;;51.58;48.70;;;;;;;;;;4226850;28;20086;-57
2024/01/22 02:26:34;;;;;;;49.97;46.97;;;;;;;;;;4221583;28;20410;-56
2024/01/22 02:28:37;;;;;;;53.40;50.40;;;;;;;;;;4230353;28;20048;-56
2024/01/22 02:30:39;;;;;;;50.90;48.33;;;;;;;;;;4230532;28;20048;-56
2024/01/22 02:32:41;;;;;;;53.10;50.10;;;;;;;;;;4230665;28;20100;-57
2024/01/22 02:34:42;;;;;;;54.63;51.22;;;;;;;;;;4230773;28;20032;-57
2024/01/22 02:36:45;;;;;;;55.35;52.17;;;;;;;;;;4230655;28;20128;-56
2024/01/22 02:38:46;;;;;;;56.90;53.03;;;;;;;;;;4230388;28;20032;-56
2024/01/22 02:40:48;;;;;;;56.50;52.60;;;;;;;;;;4220758;28;20082;-56
2024/01/22 02:42:50;;;;;;;55.08;51.75;;;;;;;;;;4213667;28;20046;-57
2024/01/22 02:44:52;;;;;;;57.17;53.63;;;;;;;;;;4213909;28;20047;-57
2024/01/22 02:46:54;;;;;;;59.27;55.37;;;;;;;;;;4213712;28;20518;-56
2024/01/22 02:48:55;;;;;;;60.13;55.92;;;;;;;;;;4215186;28;20073;-57
2024/01/22 02:50:57;;;;;;;56.03;52.83;;;;;;;;;;4215398;28;20067;-57
2024/01/22 02:52:59;;;;;;;52.30;49.23;;;;;;;;;;4216694;28;20411;-57
2024/01/22 02:55:00;;;;;;;52.90;49.47;;;;;;;;;;4232841;28;20502;-57
2024/01/22 02:57:02;;;;;;;53.65;50.88;;;;;;;;;;4233355;28;20052;-57
2024/01/22 02:59:04;;;;;;;53.78;51.08;;;;;;;;;;4233602;28;20169;-57
2024/01/22 03:01:05;;;;;;;45.45;43.25;;;;;;;;;;4233355;28;20040;-57
2024/01/22 03:03:07;;;;;;;48.63;46.40;;;;;;;;;;4233023;28;20503;-57
2024/01/22 03:05:09;;;;;;;50.15;47.65;;;;;;;;;;4233645;28;20118;-56
2024/01/22 03:07:11;;;;;;;52.10;49.63;;;;;;;;;;4233251;28;20036;-57
2024/01/22 03:09:13;;;;;;;50.93;48.40;;;;;;;;;;4233115;28;20032;-60
2024/01/22 03:11:15;;;;;;;52.00;49.37;;;;;;;;;;4233191;28;20346;-60
2024/01/22 03:13:16;;;;;;;51.88;48.88;;;;;;;;;;4233412;28;20293;-60
2024/01/22 03:15:18;;;;;;;51.43;48.90;;;;;;;;;;4233346;28;20043;-61
2024/01/22 03:17:20;;;;;;;52.28;49.78;;;;;;;;;;4233354;28;20285;-59
2024/01/22 03:19:21;;;;;;;51.63;49.33;;;;;;;;;;4233395;28;20108;-60
2024/01/22 03:21:23;;;;;;;54.30;51.72;;;;;;;;;;4233029;28;20036;-59
2024/01/22 03:23:25;;;;;;;53.67;51.27;;;;;;;;;;4233293;28;20036;-60
2024/01/22 03:25:27;;;;;;;54.05;51.10;;;;;;;;;;4233313;28;20310;-61
2024/01/22 03:27:29;;;;;;;55.38;52.53;;;;;;;;;;4233372;28;20039;-61
2024/01/22 03:29:30;;;;;;;50.47;47.63;;;;;;;;;;4232797;28;20562;-61
2024/01/22 03:31:32;;;;;;;48.58;46.20;;;;;;;;;;4233145;28;20039;-60
2024/01/22 03:33:34;;;;;;;49.60;46.90;;;;;;;;;;4233118;28;20077;-60
2024/01/22 03:35:36;;;;;;;53.63;50.25;;;;;;;;;;4232993;28;20043;-60
2024/01/22 03:37:39;;;;;;;55.10;52.05;;;;;;;;;;4218459;28;20036;-59
2024/01/22 03:39:40;;;;;;;;;;;;;;;;;;4216595;28;20048;-60
2024/01/22 03:41:42;;;;;;;49.08;46.30;;;;;;;;;;4216061;28;20429;-61
2024/01/22 03:43:44;;;;;;;50.38;47.47;;;;;;;;;;4216084;28;20059;-61
2024/01/22 03:45:45;;;;;;;51.05;48.25;;;;;;;;;;4215904;28;20046;-61
2024/01/22 03:47:47;;;;;;;54.00;51.22;;;;;;;;;;4216123;28;20044;-60
2024/01/22 03:49:49;;;;;;;54.60;51.35;;;;;;;;;;4215954;28;20032;-58
2024/01/22 03:51:51;;;;;;;53.35;50.65;;;;;;;;;;4215990;28;20051;-60
2024/01/22 03:53:52;;;;;;;56.17;52.92;;;;;;;;;;4222056;28;20043;-61
2024/01/22 03:55:54;;;;;;;53.40;50.27;;;;;;;;;;4232855;28;20135;-61
2024/01/22 03:57:56;;;;;;;55.43;52.23;;;;;;;;;;4232818;28;20430;-59
2024/01/22 03:59:58;;;;;;;54.17;51.37;;;;;;;;;;4232597;28;20277;-60
2024/01/22 04:02:00;;;;;;;50.45;47.65;;;;;;;;;;4232342;28;20297;-60
2024/01/22 04:04:03;;;;;;;50.92;48.25;;;;;;;;;;4232054;28;20097;-60
2024/01/22 04:06:06;;;;;;;52.67;49.90;;;;;;;;;;4232656;28;20082;-60
2024/01/22 04:08:07;;;;;;;51.97;49.35;;;;;;;;;;4232343;27;20565;-61
2024/01/22 04:10:09;;;;;;;55.38;52.50;;;;;;;;;;4232505;28;20039;-61
2024/01/22 04:12:11;;;;;;;56.25;53.13;;;;;;;;;;4222012;28;20097;-61
2024/01/22 04:14:13;;;;;;;58.83;55.42;;;;;;;;;;4215708;28;20039;-60
2024/01/22 04:16:14;;;;;;;53.30;50.58;;;;;;;;;;4215684;28;20089;-58
2024/01/22 04:18:16;;;;;;;51.67;49.40;;;;;;;;;;4215653;28;20044;-59
2024/01/22 04:20:18;;;;;;;50.97;48.63;;;;;;;;;;4215814;28;20286;-56
2024/01/22 04:22:19;;;;;;;51.27;48.93;;;;;;;;;;4215351;28;20132;-57
2024/01/22 04:24:21;;;;;;;46.45;44.65;;;;;;;;;;4215170;28;20036;-56
2024/01/22 04:26:23;;;;;;;45.70;44.05;;;;;;;;;;4215557;28;20040;-56
2024/01/22 04:28:25;;;;;;;49.42;47.17;;;;;;;;;;4215467;28;20036;-56
2024/01/22 04:30:27;;;;;;;48.50;46.60;;;;;;;;;;4228730;28;20085;-56
2024/01/22 04:32:28;;;;;;;50.55;48.20;;;;;;;;;;4229792;27;20043;-57
2024/01/22 04:34:30;;;;;;;50.00;47.95;;;;;;;;;;4215330;28;20403;-57
2024/01/22 04:36:32;;;;;;;50.85;48.70;;;;;;;;;;4215215;28;20044;-57
2024/01/22 04:38:33;;;;;;;48.03;46.20;;;;;;;;;;4215205;28;20044;-57
2024/01/22 04:40:35;;;;;;;50.37;48.27;;;;;;;;;;4215204;28;20044;-57
2024/01/22 04:42:37;;;;;;;51.13;48.53;;;;;;;;;;4214977;28;20286;-57
2024/01/22 04:44:38;;;;;;;52.38;49.45;;;;;;;;;;4214848;28;20063;-57
2024/01/22 04:46:40;;;;;;;54.47;51.13;;;;;;;;;;4215071;28;20090;-56
2024/01/22 04:48:42;;;;;;;52.95;50.28;;;;;;;;;;4215184;28;20040;-57
2024/01/22 04:50:44;;;;;;;52.22;49.00;;;;;;;;;;4214937;28;20048;-56
2024/01/22 04:52:46;;;;;;;53.93;51.17;;;;;;;;;;4215048;28;20036;-56
2024/01/22 04:54:47;;;;;;;50.45;47.67;;;;;;;;;;4228948;28;20483;-57
2024/01/22 04:56:50;;;;;;;52.22;49.42;;;;;;;;;;4231743;28;20100;-57
2024/01/22 04:58:52;;;;;;;49.72;47.33;;;;;;;;;;4231789;27;20169;-57
2024/01/22 05:00:54;;;;;;;55.70;52.67;;;;;;;;;;4217601;27;20044;-56
2024/01/22 05:02:55;;;;;;;59.47;55.80;;;;;;;;;;4225302;28;20046;-58
2024/01/22 05:04:59;;;;;;;53.58;50.85;;;;;;;;;;4231228;28;20515;-57
2024/01/22 05:07:01;;;;;;;53.20;50.45;;;;;;;;;;4231643;28;20135;-57
2024/01/22 05:09:04;;;;;;;49.58;47.38;;;;;;;;;;4224302;28;20467;-57
2024/01/22 05:11:07;;;;;;;51.33;49.08;;;;;;;;;;4231044;28;20054;-57
2024/01/22 05:13:08;;;;;;;;;;;;;;;;;;4230910;28;20123;-57
2024/01/22 05:15:11;;;;;;;50.63;48.28;;;;;;;;;;4222969;28;19974;-57
2024/01/22 05:17:14;;;;;;;49.38;47.13;;;;;;;;;;4219632;28;20040;-57
2024/01/22 05:19:15;;;;;;;50.45;47.95;;;;;;;;;;4229176;28;20537;-56
2024/01/22 05:21:17;;;;;;;49.97;47.53;;;;;;;;;;4231379;28;20118;-56
2024/01/22 05:23:19;;;;;;;49.97;47.72;;;;;;;;;;4231405;28;20097;-56
2024/01/22 05:25:20;;;;;;;50.15;47.67;;;;;;;;;;4231288;28;20050;-56
2024/01/22 05:27:24;;;;;;;51.55;49.08;;;;;;;;;;4231042;28;20116;-57
2024/01/22 05:29:25;;;;;;;50.85;48.40;;;;;;;;;;4227734;28;20036;-57
2024/01/22 05:31:27;;;;;;;50.97;48.88;;;;;;;;;;4231184;28;20521;-60
2024/01/22 05:33:29;;;;;;;49.33;47.20;;;;;;;;;;4231222;28;20167;-60
2024/01/22 05:35:31;;;;;;;51.63;49.08;;;;;;;;;;4231230;28;20035;-61
2024/01/22 05:37:32;;;;;;;52.35;49.67;;;;;;;;;;4231227;28;20039;-60
2024/01/22 05:39:34;;;;;;;56.10;53.17;;;;;;;;;;4231093;28;20036;-60
2024/01/22 05:41:36;;;;;;;56.83;53.45;;;;;;;;;;4229883;28;20039;-60
2024/01/22 05:43:37;;;;;;;53.20;50.55;;;;;;;;;;4231049;28;20088;-60
2024/01/22 05:45:39;;;;;;;53.92;51.15;;;;;;;;;;4230869;28;20032;-61
2024/01/22 05:47:41;;;;;;;48.67;46.47;;;;;;;;;;4231135;28;20046;-60
2024/01/22 05:49:43;;;;;;;52.97;50.13;;;;;;;;;;4215493;28;20071;-61
2024/01/22 05:51:45;;;;;;;48.00;45.90;;;;;;;;;;4217126;28;20092;-60
2024/01/22 05:53:47;;;;;;;51.47;49.17;;;;;;;;;;4230992;28;20433;-61
2024/01/22 05:55:48;;;;;;;51.30;48.83;;;;;;;;;;4221710;28;20074;-60
2024/01/22 05:57:50;;;;;;;51.60;49.30;;;;;;;;;;4219434;28;20399;-60
2024/01/22 05:59:52;;;;;;;55.15;52.58;;;;;;;;;;4230851;28;20128;-61
2024/01/22 06:01:54;;;;;;;50.63;47.97;;;;;;;;;;4230706;28;20054;-60
2024/01/22 06:03:56;;;;;;;50.50;48.17;;;;;;;;;;4226271;28;20047;-61
2024/01/22 06:05:58;;;;;;;51.92;49.65;;;;;;;;;;4212830;28;20032;-59
2024/01/22 06:08:00;;;;;;;52.85;50.50;;;;;;;;;;4213923;28;20101;-59
2024/01/22 06:10:05;;;;;;;51.03;48.78;;;;;;;;;;4230887;28;20093;-61
2024/01/22 06:12:09;;;;;;;55.65;53.05;;;;;;;;;;4230683;28;20060;-61
2024/01/22 06:14:11;;;;;;;51.03;48.60;;;;;;;;;;4230591;28;20065;-61
2024/01/22 06:16:13;;;;;;;48.17;45.85;;;;;;;;;;4230686;28;20255;-60
2024/01/22 06:18:14;;;;;;;53.77;50.73;;;;;;;;;;4227663;28;20121;-61
2024/01/22 06:20:16;;;;;;;56.70;52.93;;;;;;;;;;4213572;28;20339;-61
2024/01/22 06:22:18;;;;;;;48.20;45.60;;;;;;;;;;4221394;28;20048;-60
2024/01/22 06:24:20;;;;;;;48.70;46.65;;;;;;;;;;4233016;28;20641;-60
2024/01/22 06:26:22;;;;;;;44.10;42.43;;;;;;;;;;4219506;27;20036;-60
2024/01/22 06:28:24;;;;;;;50.88;48.80;;;;;;;;;;4216983;28;20044;-60
2024/01/22 06:30:25;;;;;;;51.03;48.58;;;;;;;;;;4230415;28;20035;-60
2024/01/22 06:32:27;;;;;;;49.42;47.13;;;;;;;;;;4234277;28;20505;-61
2024/01/22 06:34:31;;;;;;;50.40;47.47;;;;;;;;;;4234001;28;20138;-60
2024/01/22 06:36:33;;;;;;;54.17;51.10;;;;;;;;;;4222871;28;20032;-58
2024/01/22 06:38:34;;;;;;;58.38;54.95;;;;;;;;;;4218626;28;20491;-60
2024/01/22 06:40:36;;;;;;;54.45;51.05;;;;;;;;;;4228200;28;20493;-56
2024/01/22 06:42:38;;;;;;;53.83;50.85;;;;;;;;;;4233114;28;20402;-56
2024/01/22 06:44:40;;;;;;;57.45;53.35;;;;;;;;;;4234054;28;20050;-56
2024/01/22 06:46:42;;;;;;;56.90;53.58;;;;;;;;;;4234014;28;20036;-56
2024/01/22 06:48:44;;;;;;;54.88;51.40;;;;;;;;;;4233874;28;20055;-55
2024/01/22 06:50:46;;;;;;;56.10;53.13;;;;;;;;;;4233962;28;20047;-57
2024/01/22 06:52:48;;;;;;;55.03;52.03;;;;;;;;;;4232533;28;20035;-56
2024/01/22 06:54:50;;;;;;;57.42;54.33;;;;;;;;;;4232740;28;20293;-56
2024/01/22 06:56:51;;;;;;;56.17;53.22;;;;;;;;;;4233632;28;20495;-56
2024/01/22 06:58:53;;;;;;;56.80;53.20;;;;;;;;;;4233566;28;20085;-56
2024/01/22 07:00:55;;;;;;;55.15;51.83;;;;;;;;;;4233352;28;20285;-56
2024/01/22 07:02:58;;;;;;;73.97;67.18;;;;;;;;;;4232191;28;20044;-56
2024/01/22 07:05:00;;;;;;;65.60;60.20;;;;;;;;;;4233273;28;20048;-56
2024/01/22 07:07:03;;;;;;;66.27;61.37;;;;;;;;;;4233740;28;20057;-56
2024/01/22 07:09:06;;;;;;;66.07;61.13;;;;;;;;;;4233012;27;20057;-55
2024/01/22 07:11:08;;;;;;;63.83;59.35;;;;;;;;;;4233392;28;20108;-56
2024/01/22 07:13:09;;;;;;;64.03;59.67;;;;;;;;;;4233348;28;20070;-56
2024/01/22 07:15:12;;;;;;;60.07;56.20;;;;;;;;;;4233654;28;20433;-55
2024/01/22 07:17:15;;;;;;;59.40;56.03;;;;;;;;;;4233397;28;20043;-56
2024/01/22 07:19:17;;;;;;;63.42;59.17;;;;;;;;;;4233255;28;20487;-56
2024/01/22 07:21:20;;;;;;;64.93;59.90;;;;;;;;;;4230065;28;20052;-56
2024/01/22 07:23:21;;;;;;;;;;;;;;;;;;4217073;28;20043;-56
2024/01/22 07:25:24;;;;;;;61.85;57.85;;;;;;;;;;4216358;28;19920;-56
2024/01/22 07:27:26;;;;;;;60.08;56.30;;;;;;;;;;4216417;28;20426;-57
2024/01/22 07:29:28;;;;;;;60.07;56.07;;;;;;;;;;4221474;28;20499;-56
2024/01/22 07:31:29;;;;;;;56.38;53.13;;;;;;;;;;4233198;27;20281;-56
2024/01/22 07:33:31;;;;;;;59.22;55.72;;;;;;;;;;4233327;28;20054;-56
2024/01/22 07:35:33;;;;;;;57.58;54.20;;;;;;;;;;4232787;28;20039;-56
2024/01/22 07:37:36;;;;;;;56.40;53.22;;;;;;;;;;4233254;28;20036;-56
2024/01/22 07:39:37;;;;;;;55.28;52.15;;;;;;;;;;4232830;28;20530;-56
2024/01/22 07:41:39;;;;;;;54.50;51.57;;;;;;;;;;4231931;28;20466;-55
2024/01/22 07:43:40;;;;;;;61.40;57.03;;;;;;;;;;4233150;28;20045;-56
2024/01/22 07:45:42;;;;;;;67.22;60.63;;;;;;;;;;4232866;28;20293;-56
2024/01/22 07:47:44;;;;;;;62.00;57.55;;;;;;;;;;4233070;28;20043;-55
2024/01/22 07:49:46;;;;;;;67.13;62.20;;;;;;;;;;4218283;28;20079;-56
2024/01/22 07:51:48;;;;;;;60.30;56.25;;;;;;;;;;4219704;28;20437;-56
2024/01/22 07:53:50;;;;;;;66.30;60.50;;;;;;;;;;4232890;28;20474;-55
2024/01/22 07:55:51;;;;;;;60.03;56.13;;;;;;;;;;4231355;28;20077;-56
2024/01/22 07:57:53;;;;;;;57.33;54.03;;;;;;;;;;4216446;28;20048;-56
2024/01/22 07:59:55;;;;;;;56.55;53.10;;;;;;;;;;4215942;28;20044;-56
2024/01/22 08:01:56;;;;;;;62.37;58.50;;;;;;;;;;4218399;28;20040;-56
2024/01/22 08:03:58;;;;;;;63.05;58.22;;;;;;;;;;4232224;28;20346;-56
2024/01/22 08:06:00;;;;;;;57.10;54.13;;;;;;;;;;4232629;28;20406;-56
2024/01/22 08:08:01;;;;;;;57.20;53.53;;;;;;;;;;4232414;28;20055;-56
2024/01/22 08:10:03;;;;;;;83.38;74.55;;;;;;;;;;4232746;28;20031;-56
2024/01/22 08:12:05;;;;;;;124.78;91.47;;;;;;;;;;4232336;28;20047;-56
2024/01/22 08:14:07;;;;;;;109.50;87.85;;;;;;;;;;4232243;28;20035;-55
2024/01/22 08:16:09;;;;;;;95.43;83.43;;;;;;;;;;4232514;28;20070;-56
2024/01/22 08:18:11;;;;;;;;;;;;;;;;;;4224144;28;20051;-56
2024/01/22 08:20:13;;;;;;;80.40;72.50;;;;;;;;;;4215513;28;19920;-56
2024/01/22 08:22:15;;;;;;;54.42;51.10;;;;;;;;;;4215558;28;20391;-56
2024/01/22 08:24:17;;;;;;;52.07;49.67;;;;;;;;;;4215163;28;20059;-56
2024/01/22 08:26:18;;;;;;;70.47;65.97;;;;;;;;;;4215338;28;20041;-56
2024/01/22 08:28:20;;;;;;;65.50;60.53;;;;;;;;;;4215541;28;20398;-56
2024/01/22 08:30:22;;;;;;;60.83;56.78;;;;;;;;;;4227716;28;20040;-56
2024/01/22 08:32:23;;;;;;;54.10;51.37;;;;;;;;;;4232394;28;20043;-56
2024/01/22 08:34:25;;;;;;;61.50;57.08;;;;;;;;;;4231948;28;20035;-55
2024/01/22 08:36:27;;;;;;;70.68;64.88;;;;;;;;;;4232282;28;20090;-56
2024/01/22 08:38:28;;;;;;;63.37;59.23;;;;;;;;;;4232301;28;20043;-56
2024/01/22 08:40:30;;;;;;;73.40;66.53;;;;;;;;;;4232042;28;20063;-56
2024/01/22 08:42:33;;;;;;;66.10;61.35;;;;;;;;;;4232128;28;20441;-56
2024/01/22 08:44:34;;;;;;;61.00;56.95;;;;;;;;;;4229182;28;20043;-56
2024/01/22 08:46:37;;;;;;;58.72;55.13;;;;;;;;;;4214411;28;20036;-56
2024/01/22 08:48:38;;;;;;;;;;;;;;;;;;4225343;28;20391;-57
2024/01/22 08:50:40;;;;;;;49.95;47.25;;;;;;;;;;4232042;28;19959;-57
2024/01/22 08:52:45;;;;;;;60.55;56.40;;;;;;;;;;4232033;28;20123;-55
2024/01/22 08:54:47;;;;;;;74.20;66.53;;;;;;;;;;4231760;28;20043;-56
2024/01/22 08:56:49;;;;;;;48.78;46.45;;;;;;;;;;4231751;28;20123;-56
2024/01/22 08:58:51;;;;;;;44.95;43.10;;;;;;;;;;4231858;28;20436;-56
2024/01/22 09:00:53;;;;;;;42.22;40.83;;;;;;;;;;4231548;28;20536;-56
2024/01/22 09:02:55;;;;;;;45.53;43.85;;;;;;;;;;4232045;28;20130;-56
2024/01/22 09:04:56;;;;;;;47.47;45.53;;;;;;;;;;4231380;28;20044;-56
2024/01/22 09:06:58;;;;;;;42.05;40.63;;;;;;;;;;4231813;28;20040;-56
2024/01/22 09:09:00;;;;;;;45.57;43.90;;;;;;;;;;4231418;28;20103;-56
2024/01/22 09:11:02;;;;;;;43.63;42.22;;;;;;;;;;4231525;28;20817;-56
2024/01/22 09:13:04;;;;;;;43.13;41.92;;;;;;;;;;4231571;28;20039;-57
2024/01/22 09:15:06;;;;;;;41.22;40.05;;;;;;;;;;4217371;28;20042;-56
2024/01/22 09:17:08;;;;;;;;;;;;;;;;;;4215154;28;20044;-56
2024/01/22 09:19:10;;;;;;;45.83;44.13;;;;;;;;;;4214156;28;19920;-56
2024/01/22 09:21:12;;;;;;;45.65;43.85;;;;;;;;;;4214517;28;20132;-56
2024/01/22 09:23:13;;;;;;;41.92;40.72;;;;;;;;;;4214449;28;20071;-56
2024/01/22 09:25:15;;;;;;;42.00;40.70;;;;;;;;;;4214422;28;20040;-56
2024/01/22 09:27:17;;;;;;;41.80;40.43;;;;;;;;;;4214589;28;20408;-56
2024/01/22 09:29:19;;;;;;;41.45;40.00;;;;;;;;;;4218360;28;20278;-57
2024/01/22 09:31:20;;;;;;;39.83;38.55;;;;;;;;;;4231350;28;20031;-56
2024/01/22 09:33:23;;;;;;;40.05;38.60;;;;;;;;;;4231306;28;20044;-56
2024/01/22 09:35:26;;;;;;;39.03;38.13;;;;;;;;;;4231345;28;20050;-56
2024/01/22 09:37:27;;;;;;;40.30;39.22;;;;;;;;;;4231349;28;20043;-57
2024/01/22 09:39:30;;;;;;;33.75;32.88;;;;;;;;;;4230961;28;20065;-57
2024/01/22 09:41:32;;;;;;;42.95;41.15;;;;;;;;;;4222437;28;20115;-56
2024/01/22 09:43:34;;;;;;;45.13;42.75;;;;;;;;;;4214345;28;20526;-57
2024/01/22 09:45:36;;;;;;;42.93;40.97;;;;;;;;;;4229887;28;20133;-57
2024/01/22 09:47:37;;;;;;;40.63;38.83;;;;;;;;;;4231148;28;20375;-56
2024/01/22 09:49:39;;;;;;;44.42;42.05;;;;;;;;;;4229620;28;20096;-57
2024/01/22 09:51:42;;;;;;;42.67;40.07;;;;;;;;;;4231130;28;20071;-56
2024/01/22 09:53:45;;;;;;;53.33;48.97;;;;;;;;;;4231013;28;20032;-57
2024/01/22 09:55:47;;;;;;;46.08;42.80;;;;;;;;;;4231059;28;20061;-56
2024/01/22 09:57:52;;;;;;;50.35;47.35;;;;;;;;;;4230997;28;20089;-57
2024/01/22 09:59:54;;;;;;;44.72;42.58;;;;;;;;;;4230944;28;20082;-57
2024/01/22 10:01:58;;;;;;;68.20;60.95;;;;;;;;;;4230513;28;20130;-57
2024/01/22 10:03:59;;;;;;;46.73;43.77;;;;;;;;;;4230548;28;20448;-57
2024/01/22 10:06:01;;;;;;;40.42;38.72;;;;;;;;;;4230813;28;20289;-57
2024/01/22 10:08:04;;;;;;;46.70;43.60;;;;;;;;;;4230674;28;20042;-57
2024/01/22 10:10:05;;;;;;;42.38;40.58;;;;;;;;;;4227362;28;20097;-57
2024/01/22 10:12:10;;;;;;;42.70;40.50;;;;;;;;;;4214042;28;20537;-61
2024/01/22 10:14:12;;;;;;;47.38;44.67;;;;;;;;;;4213899;28;20089;-57
2024/01/22 10:16:13;;;;;;;47.57;44.70;;;;;;;;;;4213909;28;20044;-57
2024/01/22 10:18:19;;;;;;;41.42;39.72;;;;;;;;;;4213830;28;20058;-57
2024/01/22 10:20:24;;;;;;;42.28;40.30;;;;;;;;;;4213898;28;20043;-56
2024/01/22 10:22:26;;;;;;;39.10;36.80;;;;;;;;;;4213888;28;20097;-57
2024/01/22 10:24:30;;;;;;;40.53;38.75;;;;;;;;;;4213841;28;20487;-57
2024/01/22 10:26:32;;;;;;;39.85;38.25;;;;;;;;;;4213850;28;20032;-57
2024/01/22 10:28:34;;;;;;;43.17;41.13;;;;;;;;;;4213653;28;20151;-57
2024/01/22 10:30:37;;;;;;;35.53;34.00;;;;;;;;;;4228226;28;20035;-57
2024/01/22 10:32:38;;;;;;;41.60;39.85;;;;;;;;;;4230485;28;20031;-56
2024/01/22 10:34:50;;;;;;;39.88;37.85;;;;;;;;;;4230637;28;20036;-57
2024/01/22 10:37:09;;;;;;;38.60;36.72;;;;;;;;;;4229934;28;20051;-57
2024/01/22 10:39:10;;;;;;;44.78;40.58;;;;;;;;;;4213816;28;20132;-56
2024/01/22 10:41:19;;;;;;;42.25;39.72;;;;;;;;;;4225333;28;20103;-57
2024/01/22 10:43:27;;;;;;;41.78;39.67;;;;;;;;;;4229388;28;20031;-58
2024/01/22 10:45:31;;;;;;;40.88;38.67;;;;;;;;;;4230064;28;20130;-57
2024/01/22 10:47:33;;;;;;;43.17;40.53;;;;;;;;;;4230396;28;20046;-57
2024/01/22 10:49:35;;;;;;;40.17;37.70;;;;;;;;;;4230664;28;20092;-57
2024/01/22 10:51:38;;;;;;;41.95;39.40;;;;;;;;;;4229917;28;20032;-57
2024/01/22 10:53:40;;;;;;;38.50;36.60;;;;;;;;;;4226181;28;20479;-57
2024/01/22 10:55:52;;;;;;;40.10;38.08;;;;;;;;;;4229937;28;20100;-58
2024/01/22 10:57:56;;;;;;;37.72;35.78;;;;;;;;;;4230235;28;20518;-57
2024/01/22 10:59:59;;;;;;;33.10;31.85;;;;;;;;;;4230163;28;20589;-58
2024/01/22 11:02:02;;;;;;;33.10;31.63;;;;;;;;;;4230261;28;20040;-57
2024/01/22 11:04:15;;;;;;;31.15;29.80;;;;;;;;;;4229827;28;20621;-57
2024/01/22 11:06:19;;;;;;;33.72;32.58;;;;;;;;;;4227014;28;20071;-57
2024/01/22 11:08:21;;;;;;;32.90;31.30;;;;;;;;;;4216241;28;20028;-58
2024/01/22 11:10:23;;;;;;;29.70;28.58;;;;;;;;;;4232549;28;20040;-57
2024/01/22 11:12:29;;;;;;;28.13;27.15;;;;;;;;;;4233563;28;20122;-57
2024/01/22 11:14:32;;;;;;;30.02;28.83;;;;;;;;;;4233357;27;20059;-59
2024/01/22 11:16:34;;;;;;;26.17;25.48;;;;;;;;;;4232447;28;20050;-57
2024/01/22 11:18:35;;;;;;;32.27;30.87;;;;;;;;;;4232919;28;20042;-58
2024/01/22 11:20:38;;;;;;;30.13;29.05;;;;;;;;;;4231789;28;20056;-58
2024/01/22 11:22:40;;;;;;;30.20;29.40;;;;;;;;;;4233567;28;20403;-57
2024/01/22 11:24:58;;;;;;;30.83;29.85;;;;;;;;;;4232884;28;20043;-58
2024/01/22 11:27:04;;;;;;;27.33;26.60;;;;;;;;;;4233105;27;20028;-57
2024/01/22 11:29:06;;;;;;;26.17;25.38;;;;;;;;;;4233536;28;20040;-57
2024/01/22 11:31:24;;;;;;;29.83;28.83;;;;;;;;;;4233164;28;20047;-57
2024/01/22 11:33:26;;;;;;;27.65;26.88;;;;;;;;;;4232978;28;20040;-59
2024/01/22 11:35:37;;;;;;;31.35;30.23;;;;;;;;;;4219691;28;20077;-58
2024/01/22 11:37:39;;;;;;;28.27;27.08;;;;;;;;;;4233089;28;20035;-58
2024/01/22 11:39:42;;;;;;;28.63;27.75;;;;;;;;;;4233025;28;20059;-58
2024/01/22 11:41:45;;;;;;;29.40;28.52;;;;;;;;;;4232485;28;20074;-58
2024/01/22 11:43:46;;;;;;;27.77;26.80;;;;;;;;;;4232794;28;20101;-57
2024/01/22 11:45:51;;;;;;;28.40;27.65;;;;;;;;;;4231801;27;20084;-57
2024/01/22 11:47:56;;;;;;;28.55;27.75;;;;;;;;;;4232498;28;20245;-59
2024/01/22 11:50:00;;;;;;;31.13;29.52;;;;;;;;;;4231354;28;20063;-58
2024/01/22 11:52:12;;;;;;;25.58;24.88;;;;;;;;;;4231496;28;20077;-58
2024/01/22 11:54:14;;;;;;;27.25;26.55;;;;;;;;;;4232286;28;20142;-57